Time;durP1;ratioP1;P1;durP2;ratioP2;P2;SDS_P1;SDS_P2;PMS_P1;PMS_P2;Temp;Humidity;BMP_temperature;BMP_pressure;BME280_temperature;BME280_humidity;BME280_pressure;Samples;Min_cycle;Max_cycle;Signal;HPM_P1;HPM_P2
2021/12/04 14:13:11;;;;;;;26.90;3.45;;;;;;;;;;5109379;27;20352;-65
2021/12/04 14:15:43;;;;;;;26.42;2.90;;;;;;;;;;5111402;28;20035;-65
2021/12/04 14:18:11;;;;;;;17.45;3.45;;;;;;;;;;5103733;28;20065;-66
2021/12/04 14:20:39;;;;;;;16.63;3.10;;;;;;;;;;5097923;28;20081;-65
2021/12/04 14:23:06;;;;;;;18.83;3.60;;;;;;;;;;5100009;28;20032;-65
2021/12/04 14:25:32;;;;;;;17.15;3.10;;;;;;;;;;5106164;28;20036;-66
2021/12/04 14:28:01;;;;;;;29.50;9.02;;;;;;;;;;5100746;28;20036;-66
2021/12/04 14:30:32;;;;;;;14.23;2.60;;;;;;;;;;5100748;28;20028;-66
2021/12/04 14:32:59;;;;;;;15.40;4.05;;;;;;;;;;5102355;28;20466;-67
2021/12/04 14:35:35;;;;;;;20.20;3.00;;;;;;;;;;5107668;28;20027;-66
2021/12/04 14:38:01;;;;;;;16.73;3.33;;;;;;;;;;5110664;28;20024;-65
2021/12/04 14:40:32;;;;;;;19.38;3.42;;;;;;;;;;5098974;28;20024;-66
2021/12/04 14:42:59;;;;;;;20.33;3.40;;;;;;;;;;5113754;28;20023;-66
2021/12/04 14:45:30;;;;;;;18.10;3.50;;;;;;;;;;5115296;28;20035;-66
2021/12/04 14:48:03;;;;;;;17.33;3.42;;;;;;;;;;5110273;28;20058;-66
2021/12/04 14:50:30;;;;;;;21.20;2.78;;;;;;;;;;5113492;28;20543;-66
2021/12/04 14:52:58;;;;;;;21.95;3.55;;;;;;;;;;5112209;28;20040;-65
2021/12/04 14:55:26;;;;;;;21.10;3.85;;;;;;;;;;5111794;28;20019;-65
2021/12/04 14:57:53;;;;;;;21.23;3.80;;;;;;;;;;5108979;28;20027;-66
2021/12/04 15:00:22;;;;;;;16.27;3.70;;;;;;;;;;5107575;28;20108;-66
2021/12/04 15:02:56;;;;;;;20.33;4.10;;;;;;;;;;5110549;28;20115;-66
2021/12/04 15:05:32;;;;;;;28.38;3.97;;;;;;;;;;5112956;28;20023;-66
2021/12/04 15:08:05;;;;;;;20.10;4.03;;;;;;;;;;5110220;28;20073;-66
2021/12/04 15:10:31;;;;;;;17.55;2.90;;;;;;;;;;5114016;28;20034;-66
2021/12/04 15:12:59;;;;;;;18.08;3.05;;;;;;;;;;5109626;28;20048;-66
2021/12/04 15:15:35;;;;;;;10.63;2.63;;;;;;;;;;5107318;28;20022;-66
2021/12/04 15:18:08;;;;;;;12.40;1.92;;;;;;;;;;5111249;28;30680;-66
2021/12/04 15:20:37;;;;;;;8.73;1.92;;;;;;;;;;5117519;28;20015;-65
2021/12/04 15:23:07;;;;;;;14.02;2.63;;;;;;;;;;5106600;28;20089;-65
2021/12/04 15:25:35;;;;;;;17.83;2.92;;;;;;;;;;5102622;28;20024;-65
2021/12/04 15:28:02;;;;;;;11.70;2.47;;;;;;;;;;5097545;28;20043;-66
2021/12/04 15:30:28;;;;;;;10.68;2.05;;;;;;;;;;5098966;28;20808;-65
2021/12/04 15:32:54;;;;;;;18.98;3.38;;;;;;;;;;5100269;28;20031;-65
2021/12/04 15:35:32;;;;;;;48.95;26.45;;;;;;;;;;5101326;28;20028;-65
2021/12/04 15:38:05;;;;;;;82.18;43.67;;;;;;;;;;5095943;28;20028;-65
2021/12/04 15:40:46;;;;;;;49.95;20.75;;;;;;;;;;5102558;28;20031;-65
2021/12/04 15:43:25;;;;;;;73.70;33.35;;;;;;;;;;5101376;28;20020;-65
2021/12/04 15:46:19;;;;;;;16.23;3.80;;;;;;;;;;5099015;28;20031;-65
2021/12/04 15:54:17;;;;;;;10.27;2.42;;;;;;;;;;5102560;28;20085;-65
2021/12/04 15:56:48;;;;;;;14.60;5.28;;;;;;;;;;5098499;28;20056;-66
2021/12/04 15:59:14;;;;;;;18.50;2.63;;;;;;;;;;5102802;28;20024;-66
2021/12/04 16:01:41;;;;;;;7.35;2.13;;;;;;;;;;5100840;28;20051;-65
2021/12/04 16:04:18;;;;;;;9.48;1.90;;;;;;;;;;5097817;28;20075;-65
2021/12/04 16:06:44;;;;;;;10.82;3.13;;;;;;;;;;5099717;28;20311;-65
2021/12/04 16:09:10;;;;;;;17.58;3.15;;;;;;;;;;5098504;28;20028;-66
2021/12/04 16:11:37;;;;;;;8.68;1.98;;;;;;;;;;5103025;28;20047;-66
2021/12/04 16:14:05;;;;;;;10.10;2.42;;;;;;;;;;5097764;28;20104;-66
2021/12/04 16:16:33;;;;;;;10.77;3.25;;;;;;;;;;5093919;28;20515;-66
2021/12/04 16:18:59;;;;;;;10.07;2.20;;;;;;;;;;5095286;28;20020;-66
2021/12/04 16:21:25;;;;;;;9.05;2.17;;;;;;;;;;5081704;28;20559;-66
2021/12/04 16:23:53;;;;;;;16.42;2.58;;;;;;;;;;5101788;28;20027;-66
2021/12/04 16:26:23;;;;;;;9.38;2.05;;;;;;;;;;5101257;28;20054;-66
2021/12/04 16:29:06;;;;;;;9.00;2.10;;;;;;;;;;5097097;28;20095;-66
2021/12/04 16:39:31;;;;;;;10.93;2.22;;;;;;;;;;5080630;28;20028;-66
2021/12/04 16:41:58;;;;;;;10.48;3.03;;;;;;;;;;5087972;28;20090;-66
2021/12/04 16:44:25;;;;;;;9.10;2.03;;;;;;;;;;5093593;28;20042;-66
2021/12/04 16:46:52;;;;;;;7.72;2.17;;;;;;;;;;5091796;28;20380;-66
2021/12/04 16:49:18;;;;;;;10.75;2.60;;;;;;;;;;5089277;28;20402;-66
2021/12/04 16:59:50;;;;;;;7.68;1.83;;;;;;;;;;5096758;28;20038;-61
2021/12/04 17:02:18;;;;;;;10.18;2.17;;;;;;;;;;5093155;28;20033;-59
2021/12/04 17:04:44;;;;;;;15.65;2.88;;;;;;;;;;5098825;28;20081;-59
2021/12/04 17:07:10;;;;;;;9.23;2.55;;;;;;;;;;5092089;28;20041;-59
2021/12/04 17:09:37;;;;;;;12.15;2.67;;;;;;;;;;5095923;28;20024;-61
2021/12/04 17:12:04;;;;;;;12.82;3.05;;;;;;;;;;5094417;28;20131;-60
2021/12/04 17:14:31;;;;;;;12.63;2.45;;;;;;;;;;5103898;28;20050;-60
2021/12/04 17:16:59;;;;;;;12.32;2.88;;;;;;;;;;5103066;28;20081;-62
2021/12/04 17:19:25;;;;;;;11.48;2.20;;;;;;;;;;5101165;28;20114;-61
2021/12/04 17:21:54;;;;;;;13.82;2.40;;;;;;;;;;5099110;28;20553;-60
2021/12/04 17:24:31;;;;;;;9.68;2.15;;;;;;;;;;5089985;28;20138;-60
2021/12/04 17:26:59;;;;;;;7.82;1.70;;;;;;;;;;5093524;28;20102;-60
2021/12/04 17:29:27;;;;;;;11.25;2.10;;;;;;;;;;5096491;28;20463;-60
2021/12/04 17:31:54;;;;;;;7.80;1.92;;;;;;;;;;5096798;28;20405;-59
2021/12/04 17:34:21;;;;;;;7.13;1.80;;;;;;;;;;5098826;28;20520;-59
2021/12/04 17:36:47;;;;;;;10.85;2.50;;;;;;;;;;5096436;28;20040;-58
2021/12/04 17:39:14;;;;;;;14.27;1.90;;;;;;;;;;5096006;28;20094;-58
2021/12/04 17:41:41;;;;;;;10.98;2.15;;;;;;;;;;5100088;28;20036;-58
2021/12/04 17:44:20;;;;;;;7.65;2.10;;;;;;;;;;5093133;28;20028;-58
2021/12/04 17:46:47;;;;;;;9.43;1.98;;;;;;;;;;5095028;28;20494;-58
2021/12/04 17:49:16;;;;;;;7.20;1.65;;;;;;;;;;5093742;28;20024;-58
2021/12/04 17:51:42;;;;;;;6.88;1.42;;;;;;;;;;5094538;28;20032;-58
2021/12/04 17:54:11;;;;;;;6.65;1.50;;;;;;;;;;5096694;28;20024;-58
2021/12/04 17:56:38;;;;;;;8.52;1.67;;;;;;;;;;5096637;28;20023;-59
2021/12/04 17:59:05;;;;;;;9.90;1.83;;;;;;;;;;5100598;28;20031;-59
2021/12/04 18:01:37;;;;;;;8.35;2.10;;;;;;;;;;5093330;28;20047;-59
2021/12/04 18:04:04;;;;;;;10.98;2.63;;;;;;;;;;5096194;28;20059;-59
2021/12/04 18:06:30;;;;;;;14.60;2.17;;;;;;;;;;5096664;28;20034;-59
2021/12/04 18:08:57;;;;;;;13.50;3.13;;;;;;;;;;5101279;28;20443;-59
2021/12/04 18:11:26;;;;;;;12.20;2.03;;;;;;;;;;5096876;28;20430;-59
2021/12/04 18:13:53;;;;;;;6.60;2.25;;;;;;;;;;5090851;28;20084;-58
2021/12/04 18:16:21;;;;;;;10.70;2.33;;;;;;;;;;5094586;28;20032;-59
2021/12/04 18:18:47;;;;;;;10.93;2.10;;;;;;;;;;5093167;28;20487;-59
2021/12/04 18:21:15;;;;;;;6.45;1.90;;;;;;;;;;5096463;28;20036;-59
2021/12/04 18:23:41;;;;;;;9.45;1.90;;;;;;;;;;5087400;28;20062;-59
2021/12/04 18:26:08;;;;;;;9.90;2.15;;;;;;;;;;5087618;28;20032;-60
2021/12/04 18:28:34;;;;;;;9.48;2.03;;;;;;;;;;5092381;28;20124;-61
2021/12/04 18:31:01;;;;;;;8.60;2.00;;;;;;;;;;5095180;28;20110;-60
2021/12/04 18:33:28;;;;;;;12.18;2.25;;;;;;;;;;5095921;28;20023;-60
2021/12/04 18:35:55;;;;;;;11.10;2.03;;;;;;;;;;5098730;28;20039;-60
2021/12/04 18:38:21;;;;;;;12.50;2.10;;;;;;;;;;5099372;28;20032;-58
2021/12/04 18:40:48;;;;;;;12.63;2.30;;;;;;;;;;5092971;28;20020;-59
2021/12/04 18:43:21;;;;;;;12.98;2.47;;;;;;;;;;5097350;28;20028;-59
2021/12/04 18:45:48;;;;;;;9.35;2.45;;;;;;;;;;5095102;28;20070;-59
2021/12/04 18:48:14;;;;;;;13.27;2.28;;;;;;;;;;5096766;28;20024;-58
2021/12/04 18:50:41;;;;;;;12.45;2.10;;;;;;;;;;5097516;28;20024;-59
2021/12/04 18:53:07;;;;;;;13.82;2.05;;;;;;;;;;5095527;28;20024;-59
2021/12/04 18:55:34;;;;;;;9.10;2.10;;;;;;;;;;5094770;28;20033;-58
2021/12/04 18:58:00;;;;;;;12.98;2.65;;;;;;;;;;5097023;28;20566;-59
2021/12/04 19:00:27;;;;;;;12.20;2.47;;;;;;;;;;5097419;28;20027;-59
2021/12/04 19:02:57;;;;;;;15.98;2.75;;;;;;;;;;5100583;28;20039;-59
2021/12/04 19:05:24;;;;;;;17.48;3.28;;;;;;;;;;5101113;28;20020;-59
2021/12/04 19:07:51;;;;;;;20.65;3.33;;;;;;;;;;5094094;28;20057;-59
2021/12/04 19:10:17;;;;;;;12.80;3.15;;;;;;;;;;5100188;28;20024;-59
2021/12/04 19:12:44;;;;;;;11.52;2.78;;;;;;;;;;5102635;28;20051;-59
2021/12/04 19:15:12;;;;;;;15.63;2.92;;;;;;;;;;5095315;28;20028;-61
2021/12/04 19:17:40;;;;;;;16.70;3.42;;;;;;;;;;5103766;28;20060;-60
2021/12/04 19:20:09;;;;;;;17.50;3.17;;;;;;;;;;5096775;28;20028;-60
2021/12/04 19:22:39;;;;;;;12.80;3.25;;;;;;;;;;5099210;28;20036;-60
2021/12/04 19:25:05;;;;;;;14.57;3.45;;;;;;;;;;5107799;28;20027;-59
2021/12/04 19:27:32;;;;;;;18.52;3.58;;;;;;;;;;5090312;28;20040;-60
2021/12/04 19:29:58;;;;;;;10.85;2.92;;;;;;;;;;5099225;28;20024;-61
2021/12/04 19:32:28;;;;;;;14.93;3.70;;;;;;;;;;5103062;28;20072;-61
2021/12/04 19:48:24;;;;;;;14.38;3.15;;;;;;;;;;5097540;28;20569;-60
2021/12/04 19:50:51;;;;;;;;;;;;;;;;;;5100695;28;20072;-61
2021/12/04 19:56:01;;;;;;;17.02;3.90;;;;;;;;;;5088741;28;20156;-60
2021/12/04 19:58:37;;;;;;;19.33;3.78;;;;;;;;;;5094412;28;20015;-60
2021/12/04 20:01:12;;;;;;;18.27;3.92;;;;;;;;;;5097911;28;20410;-59
2021/12/04 20:03:59;;;;;;;22.02;5.25;;;;;;;;;;5097189;28;20062;-60
2021/12/04 20:06:38;;;;;;;24.33;4.70;;;;;;;;;;5097865;28;20060;-59
2021/12/04 20:14:23;;;;;;;14.25;4.38;;;;;;;;;;5096840;28;20081;-59
2021/12/04 20:16:49;;;;;;;20.05;4.78;;;;;;;;;;5099120;28;20074;-59
2021/12/04 20:19:15;;;;;;;15.60;4.45;;;;;;;;;;5101220;28;20035;-60
2021/12/04 20:21:50;;;;;;;20.05;4.60;;;;;;;;;;5097256;28;20058;-59
2021/12/04 20:24:17;;;;;;;23.02;4.32;;;;;;;;;;5090199;28;20028;-59
2021/12/04 20:26:46;;;;;;;18.25;3.63;;;;;;;;;;5095084;28;20020;-59
2021/12/04 20:32:04;;;;;;;14.93;3.88;;;;;;;;;;5096753;28;20384;-61
2021/12/04 21:07:30;;;;;;;18.10;3.92;;;;;;;;;;5095978;28;20043;-59
2021/12/04 21:10:23;;;;;;;17.92;3.88;;;;;;;;;;5100047;28;20028;-60
2021/12/04 21:43:10;;;;;;;17.50;3.33;;;;;;;;;;5031707;28;20106;-58
2021/12/04 21:50:59;;;;;;;7.45;1.85;;;;;;;;;;5028073;28;20047;-59
2021/12/04 21:53:25;;;;;;;9.52;2.13;;;;;;;;;;5033003;28;20405;-58
2021/12/04 21:56:06;;;;;;;8.90;1.58;;;;;;;;;;5031078;28;20075;-59
2021/12/04 22:09:35;;;;;;;5.22;1.63;;;;;;;;;;5092461;28;20030;-59
2021/12/04 22:17:28;;;;;;;6.20;2.03;;;;;;;;;;5088371;28;20676;-60
2021/12/04 22:20:11;;;;;;;12.75;2.42;;;;;;;;;;5085049;28;20469;-59
2021/12/04 22:55:44;;;;;;;18.60;3.63;;;;;;;;;;5098722;28;20097;-60
2021/12/04 22:58:13;;;;;;;12.38;2.70;;;;;;;;;;5090434;28;20077;-60
2021/12/04 23:00:41;;;;;;;8.63;3.05;;;;;;;;;;5099224;28;20032;-60
2021/12/04 23:03:21;;;;;;;13.90;4.30;;;;;;;;;;5096282;28;20040;-60
2021/12/04 23:11:25;;;;;;;13.40;2.72;;;;;;;;;;5014247;28;20049;-60
2021/12/04 23:13:51;;;;;;;8.43;1.95;;;;;;;;;;5019170;28;20112;-60
